createdAt,value
2023-01-13T00:00:20.194Z,80.51
2023-01-13T00:05:43.432Z,80.61
2023-01-13T00:10:49.520Z,80.85
2023-01-13T00:16:02.895Z,81.22
2023-01-13T00:21:13.893Z,81.39
2023-01-13T00:26:21.928Z,81.65
2023-01-13T00:31:25.412Z,81.85
2023-01-13T00:36:29.735Z,82.03
2023-01-13T00:41:52.922Z,82.33
2023-01-13T00:46:56.116Z,82.83
2023-01-13T00:51:59.416Z,83.31
2023-01-13T00:57:02.761Z,83.61
2023-01-13T01:02:06.033Z,83.74
2023-01-13T01:07:09.468Z,83.73
2023-01-13T01:12:12.771Z,83.70
2023-01-13T01:17:15.890Z,83.74
2023-01-13T01:22:19.074Z,83.72
2023-01-13T01:27:22.287Z,83.81
2023-01-13T01:32:25.600Z,83.82
2023-01-13T01:37:28.807Z,83.75
2023-01-13T01:42:51.057Z,83.78
2023-01-13T01:48:02.915Z,83.75
2023-01-13T01:53:13.570Z,84.00
2023-01-13T01:58:29.183Z,84.29
2023-01-13T02:03:33.600Z,84.71
2023-01-13T02:08:40.734Z,85.60
2023-01-13T02:13:43.901Z,86.28
2023-01-13T02:19:11.996Z,86.53
2023-01-13T02:24:54.444Z,86.75
2023-01-13T02:30:26.924Z,87.03
2023-01-13T02:35:55.724Z,87.39
2023-01-13T02:41:34.056Z,87.51
2023-01-13T02:46:50.792Z,87.61
2023-01-13T02:52:05.572Z,87.90
2023-01-13T02:57:13.248Z,88.14
2023-01-13T03:02:21.948Z,88.39
2023-01-13T03:08:00.648Z,88.46
2023-01-13T03:13:30.070Z,88.69
2023-01-13T03:19:01.848Z,88.65
2023-01-13T03:24:12.223Z,88.76
2023-01-13T03:29:31.202Z,88.86
2023-01-13T03:35:02.467Z,88.86
2023-01-13T03:40:20.116Z,89.01
2023-01-13T03:45:23.327Z,88.92
2023-01-13T03:50:37.466Z,89.01
2023-01-13T03:56:01.602Z,89.13
2023-01-13T04:01:12.128Z,89.29
2023-01-13T04:07:00.642Z,89.40
2023-01-13T04:13:01.093Z,89.60
2023-01-13T04:18:14.537Z,89.53
2023-01-13T04:23:19.179Z,89.52
2023-01-13T04:28:23.949Z,89.57
2023-01-13T04:33:27.030Z,89.68
2023-01-13T04:38:30.254Z,89.72
2023-01-13T04:43:33.348Z,89.79
2023-01-13T04:48:36.902Z,89.81
2023-01-13T04:53:40.176Z,89.82
2023-01-13T04:58:43.280Z,89.91
2023-01-13T05:03:46.286Z,89.88
2023-01-13T05:08:51.279Z,89.88
2023-01-13T05:14:13.176Z,89.83
2023-01-13T05:19:17.183Z,89.86
2023-01-13T05:24:39.578Z,89.84
2023-01-13T05:29:42.707Z,89.89
2023-01-13T05:34:45.884Z,89.87
2023-01-13T05:40:08.138Z,89.89
2023-01-13T05:45:12.750Z,89.86
2023-01-13T05:50:16.764Z,89.93
2023-01-13T05:55:19.829Z,89.90
2023-01-13T06:00:23.223Z,89.92
2023-01-13T06:05:26.644Z,89.93
2023-01-13T06:10:30.869Z,89.93
2023-01-13T06:15:33.981Z,89.97
2023-01-13T06:20:37.292Z,90.00
2023-01-13T06:25:52.201Z,90.01
2023-01-13T06:31:03.812Z,90.08
2023-01-13T06:36:36.581Z,90.22
2023-01-13T06:41:59.351Z,90.29
2023-01-13T06:47:02.756Z,90.29
2023-01-13T06:52:06.416Z,90.21
2023-01-13T06:57:10.200Z,90.17
2023-01-13T07:02:13.341Z,90.19
2023-01-13T07:07:16.524Z,90.20
2023-01-13T07:12:19.515Z,90.36
2023-01-13T07:17:25.616Z,90.54
2023-01-13T07:22:29.027Z,90.50
2023-01-13T07:27:32.225Z,90.61
2023-01-13T07:32:35.423Z,90.64
2023-01-13T07:37:39.752Z,90.74
2023-01-13T07:43:01.634Z,90.71
2023-01-13T07:48:05.539Z,90.69
2023-01-13T07:53:08.640Z,90.68
2023-01-13T07:58:11.744Z,90.72
2023-01-13T08:03:14.955Z,90.71
2023-01-13T08:08:18.879Z,90.64
2023-01-13T08:13:21.978Z,90.58
2023-01-13T08:18:25.193Z,90.58
2023-01-13T08:23:28.622Z,90.58
2023-01-13T08:28:32.070Z,90.60
2023-01-13T08:33:35.335Z,90.57
2023-01-13T08:38:39.296Z,90.60
2023-01-13T08:43:42.358Z,90.61
2023-01-13T08:48:45.486Z,90.61
2023-01-13T08:53:48.672Z,90.61
2023-01-13T08:58:51.879Z,90.67
2023-01-13T09:03:56.111Z,90.70
2023-01-13T09:09:00.143Z,90.53
2023-01-13T09:14:04.262Z,90.36
2023-01-13T09:19:07.287Z,90.24
2023-01-13T09:24:11.245Z,90.20
2023-01-13T09:29:15.143Z,90.19
2023-01-13T09:34:39.940Z,90.21
2023-01-13T09:39:43.595Z,90.10
2023-01-13T09:44:59.681Z,90.10
2023-01-13T09:50:22.136Z,90.06
2023-01-13T09:55:29.031Z,90.00
2023-01-13T10:00:55.686Z,89.93
2023-01-13T10:06:35.376Z,90.03
2023-01-13T10:12:03.346Z,90.11
2023-01-13T10:17:34.419Z,90.15
2023-01-13T10:23:03.929Z,90.18
2023-01-13T10:28:14.818Z,90.24
2023-01-13T10:33:27.686Z,90.21
2023-01-13T10:38:38.535Z,90.21
2023-01-13T10:44:09.385Z,90.11
2023-01-13T10:49:36.668Z,90.13
2023-01-13T10:54:52.986Z,90.11
2023-01-13T10:59:57.172Z,90.07
2023-01-13T11:05:21.522Z,90.08
2023-01-13T11:10:32.771Z,90.06
2023-01-13T11:15:41.759Z,89.91
2023-01-13T11:20:49.683Z,89.84
2023-01-13T11:26:02.766Z,89.89
2023-01-13T11:31:27.594Z,89.86
2023-01-13T11:36:51.634Z,89.75
2023-01-13T11:42:24.448Z,89.56
2023-01-13T11:47:29.130Z,89.51
2023-01-13T11:53:19.002Z,89.57
2023-01-13T11:59:08.681Z,89.39
2023-01-13T12:04:26.238Z,89.37
2023-01-13T12:09:55.857Z,89.33
2023-01-13T12:15:08.795Z,89.44
2023-01-13T12:20:36.065Z,89.42
2023-01-13T12:25:52.684Z,89.24
2023-01-13T12:31:03.014Z,89.14
2023-01-13T12:37:04.751Z,89.18
2023-01-13T12:42:39.492Z,89.18
2023-01-13T12:47:46.487Z,89.18
2023-01-13T12:53:22.048Z,89.17
2023-01-13T12:58:29.295Z,89.06
2023-01-13T13:03:35.634Z,89.00
2023-01-13T13:09:14.479Z,88.92
2023-01-13T13:14:37.602Z,88.90
2023-01-13T13:19:42.507Z,88.75
2023-01-13T13:24:51.556Z,88.66
2023-01-13T13:30:03.263Z,88.57
2023-01-13T13:35:34.077Z,88.42
2023-01-13T13:41:04.992Z,88.43
2023-01-13T13:46:47.334Z,88.37
2023-01-13T13:52:07.515Z,88.32
2023-01-13T13:57:22.401Z,88.18
2023-01-13T14:02:31.752Z,88.14
2023-01-13T14:07:48.666Z,88.25
2023-01-13T14:12:53.078Z,88.54
2023-01-13T14:17:56.267Z,88.57
2023-01-13T14:23:01.743Z,88.60
2023-01-13T14:28:40.878Z,88.53
2023-01-13T14:33:48.996Z,88.52
2023-01-13T14:39:04.477Z,88.79
2023-01-13T14:44:27.661Z,89.10
2023-01-13T14:49:36.144Z,89.19
2023-01-13T14:54:52.801Z,89.18
2023-01-13T15:00:15.887Z,89.08
2023-01-13T15:05:19.243Z,89.00
2023-01-13T15:10:38.586Z,88.93
2023-01-13T15:15:41.722Z,89.00
2023-01-13T15:20:45.328Z,88.99
2023-01-13T15:25:49.391Z,88.93
2023-01-13T15:30:55.616Z,88.93
2023-01-13T15:35:58.930Z,88.89
2023-01-13T15:41:02.124Z,88.86
2023-01-13T15:46:33.261Z,88.82
2023-01-13T15:51:37.319Z,88.78
2023-01-13T15:56:42.301Z,88.81
2023-01-13T16:01:46.441Z,89.05
2023-01-13T16:06:49.714Z,89.18
2023-01-13T16:11:52.932Z,89.26
2023-01-13T16:16:55.977Z,89.31
2023-01-13T16:21:59.956Z,89.31
2023-01-13T16:27:22.435Z,89.29
2023-01-13T16:32:25.563Z,89.26
2023-01-13T16:37:30.000Z,89.25
2023-01-13T16:42:33.217Z,89.08
2023-01-13T16:47:36.808Z,88.97
2023-01-13T16:52:39.853Z,88.88
2023-01-13T16:57:43.084Z,88.82
2023-01-13T17:02:46.686Z,88.61
2023-01-13T17:07:49.812Z,88.42
2023-01-13T17:12:53.006Z,88.27
2023-01-13T17:17:57.341Z,88.07
2023-01-13T17:23:00.561Z,87.86
2023-01-13T17:28:04.297Z,87.33
2023-01-13T17:33:07.487Z,87.22
2023-01-13T17:38:10.582Z,87.21
2023-01-13T17:43:13.717Z,87.15
2023-01-13T17:48:16.818Z,87.08
2023-01-13T17:53:21.072Z,87.18
2023-01-13T17:58:24.446Z,87.13
2023-01-13T18:03:27.672Z,87.07
2023-01-13T18:08:30.970Z,87.04
2023-01-13T18:13:35.448Z,87.08
2023-01-13T18:18:41.551Z,87.14
2023-01-13T18:24:03.654Z,87.20
2023-01-13T18:29:07.276Z,87.14
2023-01-13T18:34:11.093Z,87.00
2023-01-13T18:39:14.401Z,86.90
2023-01-13T18:44:17.687Z,86.88
2023-01-13T18:49:20.997Z,86.81
2023-01-13T18:54:24.334Z,86.81
2023-01-13T18:59:28.391Z,86.89
2023-01-13T19:04:32.872Z,86.76
2023-01-13T19:09:36.100Z,86.35
2023-01-13T19:14:40.731Z,86.28
2023-01-13T19:19:47.628Z,86.40
2023-01-13T19:24:51.138Z,86.53
2023-01-13T19:29:58.830Z,86.71
2023-01-13T19:35:02.173Z,86.58
2023-01-13T19:40:09.435Z,86.17
2023-01-13T19:45:30.750Z,85.87
2023-01-13T19:50:41.388Z,85.83
2023-01-13T19:55:48.595Z,85.94
2023-01-13T20:00:54.060Z,86.00
2023-01-13T20:06:10.577Z,86.10
2023-01-13T20:11:32.107Z,86.14
2023-01-13T20:16:35.233Z,86.29
2023-01-13T20:21:40.081Z,86.51
2023-01-13T20:26:45.398Z,86.71
2023-01-13T20:31:49.933Z,86.83
2023-01-13T20:36:53.792Z,86.93
2023-01-13T20:42:16.390Z,87.04
2023-01-13T20:47:19.654Z,87.02
2023-01-13T20:52:22.895Z,87.12
2023-01-13T20:57:26.185Z,87.29
2023-01-13T21:02:29.896Z,87.53
2023-01-13T21:07:33.122Z,87.62
2023-01-13T21:12:55.151Z,87.68
2023-01-13T21:18:17.221Z,87.60
2023-01-13T21:23:20.519Z,87.52
2023-01-13T21:28:23.625Z,87.41
2023-01-13T21:33:26.728Z,87.41
2023-01-13T21:38:30.403Z,87.54
2023-01-13T21:43:55.384Z,87.64
2023-01-13T21:48:58.677Z,87.82
2023-01-13T21:54:01.993Z,87.72
2023-01-13T21:59:05.304Z,87.75
2023-01-13T22:04:14.710Z,87.70
2023-01-13T22:09:18.168Z,87.66
2023-01-13T22:14:22.807Z,87.56
2023-01-13T22:19:26.022Z,87.52
2023-01-13T22:24:30.461Z,87.52
2023-01-13T22:29:33.665Z,87.56
2023-01-13T22:34:37.077Z,87.46
2023-01-13T22:39:40.706Z,87.36
2023-01-13T22:44:44.118Z,87.20
2023-01-13T22:49:48.143Z,87.08
2023-01-13T22:54:51.141Z,86.99
2023-01-13T22:59:54.266Z,86.88
2023-01-13T23:04:57.585Z,86.82
2023-01-13T23:10:00.669Z,86.79
2023-01-13T23:15:05.606Z,86.71
2023-01-13T23:20:10.100Z,86.61
2023-01-13T23:25:13.158Z,86.51
2023-01-13T23:30:16.572Z,86.52
2023-01-13T23:35:19.703Z,86.54
2023-01-13T23:40:23.090Z,86.50
2023-01-13T23:45:27.025Z,86.46
2023-01-13T23:50:30.226Z,86.41
2023-01-13T23:55:33.741Z,86.39
